sensor_id;sensor_type;location;lat;lon;timestamp;P1;durP1;ratioP1;P2;durP2;ratioP2
20976;SDS011;10647;51.016;3.720;2022-08-01T00:00:40;6.47;;;3.95;;
20976;SDS011;10647;51.016;3.720;2022-08-01T00:03:07;10.38;;;4.30;;
20976;SDS011;10647;51.016;3.720;2022-08-01T00:05:35;8.88;;;4.15;;
20976;SDS011;10647;51.016;3.720;2022-08-01T00:08:02;8.65;;;4.00;;
20976;SDS011;10647;51.016;3.720;2022-08-01T00:10:30;9.90;;;4.28;;
20976;SDS011;10647;51.016;3.720;2022-08-01T00:15:28;10.55;;;4.62;;
20976;SDS011;10647;51.016;3.720;2022-08-01T00:17:56;12.25;;;4.80;;
20976;SDS011;10647;51.016;3.720;2022-08-01T00:20:24;13.18;;;5.22;;
20976;SDS011;10647;51.016;3.720;2022-08-01T00:22:51;12.60;;;6.00;;
20976;SDS011;10647;51.016;3.720;2022-08-01T00:25:21;16.50;;;5.60;;
20976;SDS011;10647;51.016;3.720;2022-08-01T00:27:48;18.32;;;6.30;;
20976;SDS011;10647;51.016;3.720;2022-08-01T00:30:16;15.08;;;6.17;;
20976;SDS011;10647;51.016;3.720;2022-08-01T00:32:45;14.87;;;6.55;;
20976;SDS011;10647;51.016;3.720;2022-08-01T00:35:12;14.25;;;6.50;;
20976;SDS011;10647;51.016;3.720;2022-08-01T00:37:40;14.20;;;6.72;;
20976;SDS011;10647;51.016;3.720;2022-08-01T00:40:08;24.50;;;7.85;;
20976;SDS011;10647;51.016;3.720;2022-08-01T00:42:35;16.30;;;6.92;;
20976;SDS011;10647;51.016;3.720;2022-08-01T00:45:04;19.17;;;7.40;;
20976;SDS011;10647;51.016;3.720;2022-08-01T00:47:32;18.07;;;8.45;;
20976;SDS011;10647;51.016;3.720;2022-08-01T00:50:00;15.55;;;7.72;;
20976;SDS011;10647;51.016;3.720;2022-08-01T00:52:30;22.58;;;8.58;;
20976;SDS011;10647;51.016;3.720;2022-08-01T00:54:58;18.52;;;7.90;;
20976;SDS011;10647;51.016;3.720;2022-08-01T00:57:25;18.45;;;7.80;;
20976;SDS011;10647;51.016;3.720;2022-08-01T00:59:53;18.32;;;8.25;;
20976;SDS011;10647;51.016;3.720;2022-08-01T01:02:20;17.73;;;8.28;;
20976;SDS011;10647;51.016;3.720;2022-08-01T01:04:48;24.05;;;9.13;;
20976;SDS011;10647;51.016;3.720;2022-08-01T01:07:21;19.52;;;8.45;;
20976;SDS011;10647;51.016;3.720;2022-08-01T01:10:02;23.15;;;8.70;;
20976;SDS011;10647;51.016;3.720;2022-08-01T01:12:50;19.57;;;9.35;;
20976;SDS011;10647;51.016;3.720;2022-08-01T01:15:23;27.62;;;10.45;;
20976;SDS011;10647;51.016;3.720;2022-08-01T01:18:15;24.98;;;10.75;;
20976;SDS011;10647;51.016;3.720;2022-08-01T01:20:54;24.65;;;11.03;;
20976;SDS011;10647;51.016;3.720;2022-08-01T01:29:15;25.75;;;13.25;;
20976;SDS011;10647;51.016;3.720;2022-08-01T01:31:59;27.45;;;13.45;;
20976;SDS011;10647;51.016;3.720;2022-08-01T01:34:32;26.15;;;13.90;;
20976;SDS011;10647;51.016;3.720;2022-08-01T01:37:02;27.87;;;13.58;;
20976;SDS011;10647;51.016;3.720;2022-08-01T01:39:31;29.52;;;12.58;;
20976;SDS011;10647;51.016;3.720;2022-08-01T01:42:02;33.95;;;15.05;;
20976;SDS011;10647;51.016;3.720;2022-08-01T01:44:31;32.88;;;15.00;;
20976;SDS011;10647;51.016;3.720;2022-08-01T01:47:00;29.00;;;15.30;;
20976;SDS011;10647;51.016;3.720;2022-08-01T01:49:28;34.40;;;16.65;;
20976;SDS011;10647;51.016;3.720;2022-08-01T01:51:58;32.35;;;18.00;;
20976;SDS011;10647;51.016;3.720;2022-08-01T01:54:30;35.78;;;17.60;;
20976;SDS011;10647;51.016;3.720;2022-08-01T01:56:59;31.62;;;16.20;;
20976;SDS011;10647;51.016;3.720;2022-08-01T01:59:31;40.25;;;17.80;;
20976;SDS011;10647;51.016;3.720;2022-08-01T02:02:02;38.08;;;17.00;;
20976;SDS011;10647;51.016;3.720;2022-08-01T02:04:30;42.50;;;17.05;;
20976;SDS011;10647;51.016;3.720;2022-08-01T02:07:01;34.58;;;15.38;;
20976;SDS011;10647;51.016;3.720;2022-08-01T02:09:31;31.40;;;12.90;;
20976;SDS011;10647;51.016;3.720;2022-08-01T02:12:02;16.60;;;8.10;;
20976;SDS011;10647;51.016;3.720;2022-08-01T02:14:32;18.57;;;7.45;;
20976;SDS011;10647;51.016;3.720;2022-08-01T02:17:05;16.23;;;7.22;;
20976;SDS011;10647;51.016;3.720;2022-08-01T02:19:35;23.52;;;7.25;;
20976;SDS011;10647;51.016;3.720;2022-08-01T02:22:14;21.62;;;8.43;;
20976;SDS011;10647;51.016;3.720;2022-08-01T02:27:39;17.90;;;7.17;;
20976;SDS011;10647;51.016;3.720;2022-08-01T02:30:02;18.70;;;7.92;;
20976;SDS011;10647;51.016;3.720;2022-08-01T02:32:34;19.10;;;7.28;;
20976;SDS011;10647;51.016;3.720;2022-08-01T02:35:05;14.30;;;7.12;;
20976;SDS011;10647;51.016;3.720;2022-08-01T02:37:36;19.65;;;8.38;;
20976;SDS011;10647;51.016;3.720;2022-08-01T02:40:10;22.35;;;7.80;;
20976;SDS011;10647;51.016;3.720;2022-08-01T02:42:44;18.55;;;7.40;;
20976;SDS011;10647;51.016;3.720;2022-08-01T02:45:14;20.95;;;7.72;;
20976;SDS011;10647;51.016;3.720;2022-08-01T02:47:44;16.82;;;7.35;;
20976;SDS011;10647;51.016;3.720;2022-08-01T02:50:14;20.62;;;7.65;;
20976;SDS011;10647;51.016;3.720;2022-08-01T02:58:19;13.90;;;6.85;;
20976;SDS011;10647;51.016;3.720;2022-08-01T03:00:49;13.60;;;6.42;;
20976;SDS011;10647;51.016;3.720;2022-08-01T03:03:17;16.90;;;6.30;;
20976;SDS011;10647;51.016;3.720;2022-08-01T03:05:48;12.85;;;5.28;;
20976;SDS011;10647;51.016;3.720;2022-08-01T03:08:16;14.38;;;5.47;;
20976;SDS011;10647;51.016;3.720;2022-08-01T03:10:45;10.35;;;5.45;;
20976;SDS011;10647;51.016;3.720;2022-08-01T03:13:14;12.82;;;4.87;;
20976;SDS011;10647;51.016;3.720;2022-08-01T03:15:44;10.63;;;4.45;;
20976;SDS011;10647;51.016;3.720;2022-08-01T03:18:13;12.00;;;4.60;;
20976;SDS011;10647;51.016;3.720;2022-08-01T03:20:42;10.88;;;4.20;;
20976;SDS011;10647;51.016;3.720;2022-08-01T03:23:12;11.57;;;4.53;;
20976;SDS011;10647;51.016;3.720;2022-08-01T03:25:41;11.25;;;4.42;;
20976;SDS011;10647;51.016;3.720;2022-08-01T03:28:12;11.15;;;4.03;;
20976;SDS011;10647;51.016;3.720;2022-08-01T03:30:42;9.08;;;4.12;;
20976;SDS011;10647;51.016;3.720;2022-08-01T03:33:10;11.03;;;3.87;;
20976;SDS011;10647;51.016;3.720;2022-08-01T03:35:46;7.10;;;3.30;;
20976;SDS011;10647;51.016;3.720;2022-08-01T03:38:08;10.10;;;3.72;;
20976;SDS011;10647;51.016;3.720;2022-08-01T03:40:39;8.68;;;3.47;;
20976;SDS011;10647;51.016;3.720;2022-08-01T03:43:24;8.45;;;3.40;;
20976;SDS011;10647;51.016;3.720;2022-08-01T03:45:51;7.95;;;3.37;;
20976;SDS011;10647;51.016;3.720;2022-08-01T03:48:24;8.90;;;3.12;;
20976;SDS011;10647;51.016;3.720;2022-08-01T03:50:51;8.73;;;3.80;;
20976;SDS011;10647;51.016;3.720;2022-08-01T03:53:20;8.13;;;3.40;;
20976;SDS011;10647;51.016;3.720;2022-08-01T03:55:50;7.80;;;3.12;;
20976;SDS011;10647;51.016;3.720;2022-08-01T03:58:20;8.75;;;3.20;;
20976;SDS011;10647;51.016;3.720;2022-08-01T04:00:48;6.92;;;3.30;;
20976;SDS011;10647;51.016;3.720;2022-08-01T04:03:16;6.85;;;3.05;;
20976;SDS011;10647;51.016;3.720;2022-08-01T04:05:44;6.20;;;2.75;;
20976;SDS011;10647;51.016;3.720;2022-08-01T04:08:12;5.97;;;2.87;;
20976;SDS011;10647;51.016;3.720;2022-08-01T04:10:39;8.93;;;2.80;;
20976;SDS011;10647;51.016;3.720;2022-08-01T04:13:07;8.70;;;3.17;;
20976;SDS011;10647;51.016;3.720;2022-08-01T04:15:35;7.10;;;3.17;;
20976;SDS011;10647;51.016;3.720;2022-08-01T04:18:02;6.50;;;3.00;;
20976;SDS011;10647;51.016;3.720;2022-08-01T04:20:30;6.78;;;2.83;;
20976;SDS011;10647;51.016;3.720;2022-08-01T04:22:57;7.15;;;2.90;;
20976;SDS011;10647;51.016;3.720;2022-08-01T04:25:28;7.35;;;2.70;;
20976;SDS011;10647;51.016;3.720;2022-08-01T04:27:56;9.88;;;2.98;;
20976;SDS011;10647;51.016;3.720;2022-08-01T04:30:26;5.33;;;2.95;;
20976;SDS011;10647;51.016;3.720;2022-08-01T04:32:55;7.72;;;3.50;;
20976;SDS011;10647;51.016;3.720;2022-08-01T04:35:26;9.68;;;2.85;;
20976;SDS011;10647;51.016;3.720;2022-08-01T04:37:55;5.58;;;2.65;;
20976;SDS011;10647;51.016;3.720;2022-08-01T04:40:26;8.35;;;2.98;;
20976;SDS011;10647;51.016;3.720;2022-08-01T04:42:56;6.25;;;2.37;;
20976;SDS011;10647;51.016;3.720;2022-08-01T04:45:23;5.72;;;2.50;;
20976;SDS011;10647;51.016;3.720;2022-08-01T04:47:52;4.67;;;2.42;;
20976;SDS011;10647;51.016;3.720;2022-08-01T04:50:20;4.67;;;2.27;;
20976;SDS011;10647;51.016;3.720;2022-08-01T04:52:48;6.50;;;2.25;;
20976;SDS011;10647;51.016;3.720;2022-08-01T04:55:17;5.40;;;2.40;;
20976;SDS011;10647;51.016;3.720;2022-08-01T04:57:45;5.60;;;2.22;;
20976;SDS011;10647;51.016;3.720;2022-08-01T05:00:14;5.78;;;2.58;;
20976;SDS011;10647;51.016;3.720;2022-08-01T05:02:45;4.28;;;2.00;;
20976;SDS011;10647;51.016;3.720;2022-08-01T05:05:12;5.97;;;3.05;;
20976;SDS011;10647;51.016;3.720;2022-08-01T05:07:40;5.42;;;2.40;;
20976;SDS011;10647;51.016;3.720;2022-08-01T05:10:08;3.90;;;2.33;;
20976;SDS011;10647;51.016;3.720;2022-08-01T05:12:35;5.67;;;2.47;;
20976;SDS011;10647;51.016;3.720;2022-08-01T05:15:03;8.85;;;3.15;;
20976;SDS011;10647;51.016;3.720;2022-08-01T05:17:32;4.90;;;2.15;;
20976;SDS011;10647;51.016;3.720;2022-08-01T05:19:59;5.50;;;2.30;;
20976;SDS011;10647;51.016;3.720;2022-08-01T05:22:27;5.40;;;2.98;;
20976;SDS011;10647;51.016;3.720;2022-08-01T05:24:55;5.55;;;2.50;;
20976;SDS011;10647;51.016;3.720;2022-08-01T05:27:22;9.80;;;2.42;;
20976;SDS011;10647;51.016;3.720;2022-08-01T05:29:50;4.08;;;2.33;;
20976;SDS011;10647;51.016;3.720;2022-08-01T05:32:17;6.60;;;2.58;;
20976;SDS011;10647;51.016;3.720;2022-08-01T05:34:45;3.95;;;2.15;;
20976;SDS011;10647;51.016;3.720;2022-08-01T05:37:14;4.95;;;2.62;;
20976;SDS011;10647;51.016;3.720;2022-08-01T05:39:44;3.95;;;2.50;;
20976;SDS011;10647;51.016;3.720;2022-08-01T05:42:18;3.95;;;2.12;;
20976;SDS011;10647;51.016;3.720;2022-08-01T05:47:19;4.97;;;2.30;;
20976;SDS011;10647;51.016;3.720;2022-08-01T05:49:47;3.02;;;1.85;;
20976;SDS011;10647;51.016;3.720;2022-08-01T05:52:14;3.17;;;1.95;;
20976;SDS011;10647;51.016;3.720;2022-08-01T05:54:42;3.40;;;1.87;;
20976;SDS011;10647;51.016;3.720;2022-08-01T05:57:09;6.20;;;2.10;;
20976;SDS011;10647;51.016;3.720;2022-08-01T05:59:38;4.78;;;2.00;;
20976;SDS011;10647;51.016;3.720;2022-08-01T06:02:05;3.40;;;2.08;;
20976;SDS011;10647;51.016;3.720;2022-08-01T06:04:33;5.90;;;2.25;;
20976;SDS011;10647;51.016;3.720;2022-08-01T06:07:00;2.77;;;1.80;;
20976;SDS011;10647;51.016;3.720;2022-08-01T06:09:28;3.33;;;1.95;;
20976;SDS011;10647;51.016;3.720;2022-08-01T06:11:56;3.33;;;2.25;;
20976;SDS011;10647;51.016;3.720;2022-08-01T06:14:24;2.58;;;2.00;;
20976;SDS011;10647;51.016;3.720;2022-08-01T06:16:51;6.15;;;1.62;;
20976;SDS011;10647;51.016;3.720;2022-08-01T06:19:19;5.70;;;2.17;;
20976;SDS011;10647;51.016;3.720;2022-08-01T06:21:46;5.10;;;1.62;;
20976;SDS011;10647;51.016;3.720;2022-08-01T06:24:14;6.65;;;2.12;;
20976;SDS011;10647;51.016;3.720;2022-08-01T06:26:41;6.72;;;2.47;;
20976;SDS011;10647;51.016;3.720;2022-08-01T06:29:09;5.17;;;1.87;;
20976;SDS011;10647;51.016;3.720;2022-08-01T06:31:36;3.30;;;2.10;;
20976;SDS011;10647;51.016;3.720;2022-08-01T06:34:04;5.95;;;2.20;;
20976;SDS011;10647;51.016;3.720;2022-08-01T06:36:31;4.50;;;1.90;;
20976;SDS011;10647;51.016;3.720;2022-08-01T06:38:59;4.97;;;1.90;;
20976;SDS011;10647;51.016;3.720;2022-08-01T06:41:27;3.62;;;1.80;;
20976;SDS011;10647;51.016;3.720;2022-08-01T06:43:54;4.00;;;1.90;;
20976;SDS011;10647;51.016;3.720;2022-08-01T06:46:22;4.20;;;1.70;;
20976;SDS011;10647;51.016;3.720;2022-08-01T06:48:49;4.87;;;2.25;;
20976;SDS011;10647;51.016;3.720;2022-08-01T06:51:17;4.95;;;1.65;;
20976;SDS011;10647;51.016;3.720;2022-08-01T06:53:46;4.28;;;1.80;;
20976;SDS011;10647;51.016;3.720;2022-08-01T06:56:13;2.65;;;1.40;;
20976;SDS011;10647;51.016;3.720;2022-08-01T06:58:41;2.52;;;1.50;;
20976;SDS011;10647;51.016;3.720;2022-08-01T07:01:08;2.70;;;1.20;;
20976;SDS011;10647;51.016;3.720;2022-08-01T07:03:36;3.33;;;1.20;;
20976;SDS011;10647;51.016;3.720;2022-08-01T07:06:04;2.42;;;1.30;;
20976;SDS011;10647;51.016;3.720;2022-08-01T07:08:32;3.60;;;1.20;;
20976;SDS011;10647;51.016;3.720;2022-08-01T07:11:07;3.45;;;1.30;;
20976;SDS011;10647;51.016;3.720;2022-08-01T07:13:36;3.05;;;1.42;;
20976;SDS011;10647;51.016;3.720;2022-08-01T07:16:03;4.80;;;1.50;;
20976;SDS011;10647;51.016;3.720;2022-08-01T07:18:37;4.12;;;1.40;;
20976;SDS011;10647;51.016;3.720;2022-08-01T07:23:38;1.90;;;1.17;;
20976;SDS011;10647;51.016;3.720;2022-08-01T07:26:06;4.25;;;1.27;;
20976;SDS011;10647;51.016;3.720;2022-08-01T07:28:33;4.67;;;2.08;;
20976;SDS011;10647;51.016;3.720;2022-08-01T07:31:01;3.80;;;1.80;;
20976;SDS011;10647;51.016;3.720;2022-08-01T07:33:29;3.37;;;1.50;;
20976;SDS011;10647;51.016;3.720;2022-08-01T07:35:56;3.25;;;1.30;;
20976;SDS011;10647;51.016;3.720;2022-08-01T07:38:24;1.80;;;1.40;;
20976;SDS011;10647;51.016;3.720;2022-08-01T07:40:51;4.65;;;1.17;;
20976;SDS011;10647;51.016;3.720;2022-08-01T07:43:20;4.22;;;1.35;;
20976;SDS011;10647;51.016;3.720;2022-08-01T07:45:48;3.50;;;1.62;;
20976;SDS011;10647;51.016;3.720;2022-08-01T07:48:15;2.62;;;1.50;;
20976;SDS011;10647;51.016;3.720;2022-08-01T07:50:50;2.83;;;1.40;;
20976;SDS011;10647;51.016;3.720;2022-08-01T07:53:17;2.85;;;1.30;;
20976;SDS011;10647;51.016;3.720;2022-08-01T07:55:45;2.62;;;1.57;;
20976;SDS011;10647;51.016;3.720;2022-08-01T07:58:13;2.35;;;0.88;;
20976;SDS011;10647;51.016;3.720;2022-08-01T08:00:42;3.65;;;1.00;;
20976;SDS011;10647;51.016;3.720;2022-08-01T08:03:09;1.92;;;0.98;;
20976;SDS011;10647;51.016;3.720;2022-08-01T08:05:37;2.47;;;1.40;;
20976;SDS011;10647;51.016;3.720;2022-08-01T08:08:05;2.20;;;1.15;;
20976;SDS011;10647;51.016;3.720;2022-08-01T08:10:33;2.20;;;1.07;;
20976;SDS011;10647;51.016;3.720;2022-08-01T08:13:01;3.17;;;1.42;;
20976;SDS011;10647;51.016;3.720;2022-08-01T08:15:29;2.08;;;1.30;;
20976;SDS011;10647;51.016;3.720;2022-08-01T08:17:57;2.65;;;0.90;;
20976;SDS011;10647;51.016;3.720;2022-08-01T08:20:24;2.90;;;0.80;;
20976;SDS011;10647;51.016;3.720;2022-08-01T08:22:53;1.20;;;0.80;;
20976;SDS011;10647;51.016;3.720;2022-08-01T08:25:24;3.62;;;1.00;;
20976;SDS011;10647;51.016;3.720;2022-08-01T08:27:53;1.95;;;0.70;;
20976;SDS011;10647;51.016;3.720;2022-08-01T08:30:20;5.80;;;1.00;;
20976;SDS011;10647;51.016;3.720;2022-08-01T08:32:48;13.65;;;1.50;;
20976;SDS011;10647;51.016;3.720;2022-08-01T08:35:17;8.55;;;1.30;;
20976;SDS011;10647;51.016;3.720;2022-08-01T08:37:45;3.40;;;0.90;;
20976;SDS011;10647;51.016;3.720;2022-08-01T08:40:13;1.98;;;1.20;;
20976;SDS011;10647;51.016;3.720;2022-08-01T08:42:42;2.00;;;1.50;;
20976;SDS011;10647;51.016;3.720;2022-08-01T08:45:12;4.97;;;2.27;;
20976;SDS011;10647;51.016;3.720;2022-08-01T08:47:39;4.05;;;1.35;;
20976;SDS011;10647;51.016;3.720;2022-08-01T08:50:11;1.62;;;1.30;;
20976;SDS011;10647;51.016;3.720;2022-08-01T08:52:39;2.55;;;2.17;;
20976;SDS011;10647;51.016;3.720;2022-08-01T08:55:08;2.22;;;1.20;;
20976;SDS011;10647;51.016;3.720;2022-08-01T08:57:40;1.98;;;1.30;;
20976;SDS011;10647;51.016;3.720;2022-08-01T09:00:10;3.87;;;1.77;;
20976;SDS011;10647;51.016;3.720;2022-08-01T09:02:40;3.30;;;1.72;;
20976;SDS011;10647;51.016;3.720;2022-08-01T09:05:09;3.35;;;1.95;;
20976;SDS011;10647;51.016;3.720;2022-08-01T09:07:37;2.20;;;1.50;;
20976;SDS011;10647;51.016;3.720;2022-08-01T09:10:05;2.98;;;1.40;;
20976;SDS011;10647;51.016;3.720;2022-08-01T09:12:36;1.98;;;1.35;;
20976;SDS011;10647;51.016;3.720;2022-08-01T09:15:04;4.03;;;2.12;;
20976;SDS011;10647;51.016;3.720;2022-08-01T09:17:39;3.75;;;1.30;;
20976;SDS011;10647;51.016;3.720;2022-08-01T09:20:07;1.55;;;0.90;;
20976;SDS011;10647;51.016;3.720;2022-08-01T09:22:37;1.87;;;1.20;;
20976;SDS011;10647;51.016;3.720;2022-08-01T09:27:37;3.55;;;1.07;;
20976;SDS011;10647;51.016;3.720;2022-08-01T09:35:28;1.50;;;0.98;;
20976;SDS011;10647;51.016;3.720;2022-08-01T09:38:19;3.75;;;0.85;;
20976;SDS011;10647;51.016;3.720;2022-08-01T09:40:55;1.12;;;0.80;;
20976;SDS011;10647;51.016;3.720;2022-08-01T09:43:26;2.55;;;1.12;;
20976;SDS011;10647;51.016;3.720;2022-08-01T09:45:55;4.28;;;0.80;;
20976;SDS011;10647;51.016;3.720;2022-08-01T09:48:23;1.00;;;0.65;;
20976;SDS011;10647;51.016;3.720;2022-08-01T09:50:52;2.70;;;1.02;;
20976;SDS011;10647;51.016;3.720;2022-08-01T09:53:20;2.25;;;1.02;;
20976;SDS011;10647;51.016;3.720;2022-08-01T09:55:47;4.15;;;0.93;;
20976;SDS011;10647;51.016;3.720;2022-08-01T09:58:22;2.33;;;0.93;;
20976;SDS011;10647;51.016;3.720;2022-08-01T10:01:09;1.65;;;1.00;;
20976;SDS011;10647;51.016;3.720;2022-08-01T10:03:26;3.42;;;1.00;;
20976;SDS011;10647;51.016;3.720;2022-08-01T10:05:55;1.22;;;0.80;;
20976;SDS011;10647;51.016;3.720;2022-08-01T10:08:24;3.15;;;1.00;;
20976;SDS011;10647;51.016;3.720;2022-08-01T10:11:07;2.67;;;1.17;;
20976;SDS011;10647;51.016;3.720;2022-08-01T10:13:36;2.22;;;0.90;;
20976;SDS011;10647;51.016;3.720;2022-08-01T10:16:05;1.80;;;0.90;;
20976;SDS011;10647;51.016;3.720;2022-08-01T10:18:33;1.47;;;0.80;;
20976;SDS011;10647;51.016;3.720;2022-08-01T10:21:02;2.17;;;0.85;;
20976;SDS011;10647;51.016;3.720;2022-08-01T10:23:33;1.98;;;0.90;;
20976;SDS011;10647;51.016;3.720;2022-08-01T10:26:01;3.08;;;0.80;;
20976;SDS011;10647;51.016;3.720;2022-08-01T10:28:31;2.42;;;0.80;;
20976;SDS011;10647;51.016;3.720;2022-08-01T10:31:00;1.02;;;0.90;;
20976;SDS011;10647;51.016;3.720;2022-08-01T10:33:31;3.17;;;0.90;;
20976;SDS011;10647;51.016;3.720;2022-08-01T10:35:59;4.65;;;0.80;;
20976;SDS011;10647;51.016;3.720;2022-08-01T10:38:27;2.40;;;0.90;;
20976;SDS011;10647;51.016;3.720;2022-08-01T10:40:55;2.58;;;0.82;;
20976;SDS011;10647;51.016;3.720;2022-08-01T10:43:25;3.67;;;0.98;;
20976;SDS011;10647;51.016;3.720;2022-08-01T10:45:53;6.42;;;0.80;;
20976;SDS011;10647;51.016;3.720;2022-08-01T10:51:18;1.67;;;0.90;;
20976;SDS011;10647;51.016;3.720;2022-08-01T10:53:48;3.05;;;1.10;;
20976;SDS011;10647;51.016;3.720;2022-08-01T10:56:19;2.30;;;0.90;;
20976;SDS011;10647;51.016;3.720;2022-08-01T10:58:48;2.10;;;1.12;;
20976;SDS011;10647;51.016;3.720;2022-08-01T11:01:24;2.40;;;1.10;;
20976;SDS011;10647;51.016;3.720;2022-08-01T11:06:38;4.17;;;1.10;;
20976;SDS011;10647;51.016;3.720;2022-08-01T11:17:34;1.37;;;0.85;;
20976;SDS011;10647;51.016;3.720;2022-08-01T11:20:23;4.85;;;1.20;;
20976;SDS011;10647;51.016;3.720;2022-08-01T11:30:53;4.45;;;1.50;;
20976;SDS011;10647;51.016;3.720;2022-08-01T11:41:25;2.02;;;0.98;;
20976;SDS011;10647;51.016;3.720;2022-08-01T11:43:56;2.52;;;1.05;;
20976;SDS011;10647;51.016;3.720;2022-08-01T11:52:27;2.37;;;1.00;;
20976;SDS011;10647;51.016;3.720;2022-08-01T11:57:33;4.20;;;1.30;;
20976;SDS011;10647;51.016;3.720;2022-08-01T12:00:04;2.83;;;1.22;;
20976;SDS011;10647;51.016;3.720;2022-08-01T12:02:33;3.50;;;1.30;;
20976;SDS011;10647;51.016;3.720;2022-08-01T12:05:05;2.30;;;1.00;;
20976;SDS011;10647;51.016;3.720;2022-08-01T12:07:35;2.47;;;1.12;;
20976;SDS011;10647;51.016;3.720;2022-08-01T12:10:04;3.30;;;1.20;;
20976;SDS011;10647;51.016;3.720;2022-08-01T12:12:46;4.33;;;1.45;;
20976;SDS011;10647;51.016;3.720;2022-08-01T12:15:15;2.35;;;1.22;;
20976;SDS011;10647;51.016;3.720;2022-08-01T12:17:45;2.62;;;1.07;;
20976;SDS011;10647;51.016;3.720;2022-08-01T12:20:16;3.47;;;1.20;;
20976;SDS011;10647;51.016;3.720;2022-08-01T12:22:47;4.00;;;1.00;;
20976;SDS011;10647;51.016;3.720;2022-08-01T12:25:17;5.17;;;1.15;;
20976;SDS011;10647;51.016;3.720;2022-08-01T12:27:45;2.05;;;0.90;;
20976;SDS011;10647;51.016;3.720;2022-08-01T12:30:15;4.20;;;0.80;;
20976;SDS011;10647;51.016;3.720;2022-08-01T12:32:46;4.37;;;1.00;;
20976;SDS011;10647;51.016;3.720;2022-08-01T12:35:15;2.70;;;1.20;;
20976;SDS011;10647;51.016;3.720;2022-08-01T12:37:53;2.92;;;1.02;;
20976;SDS011;10647;51.016;3.720;2022-08-01T12:40:23;3.87;;;1.07;;
20976;SDS011;10647;51.016;3.720;2022-08-01T12:42:58;1.30;;;0.90;;
20976;SDS011;10647;51.016;3.720;2022-08-01T12:45:30;2.05;;;1.02;;
20976;SDS011;10647;51.016;3.720;2022-08-01T12:48:01;3.10;;;1.05;;
20976;SDS011;10647;51.016;3.720;2022-08-01T12:50:30;2.42;;;0.80;;
20976;SDS011;10647;51.016;3.720;2022-08-01T12:53:00;1.50;;;0.90;;
20976;SDS011;10647;51.016;3.720;2022-08-01T12:55:28;3.75;;;1.12;;
20976;SDS011;10647;51.016;3.720;2022-08-01T12:58:06;2.17;;;0.90;;
20976;SDS011;10647;51.016;3.720;2022-08-01T13:00:36;4.28;;;1.10;;
20976;SDS011;10647;51.016;3.720;2022-08-01T13:03:07;1.72;;;1.00;;
20976;SDS011;10647;51.016;3.720;2022-08-01T13:05:40;3.58;;;0.95;;
20976;SDS011;10647;51.016;3.720;2022-08-01T13:08:14;2.90;;;1.10;;
20976;SDS011;10647;51.016;3.720;2022-08-01T13:10:40;3.45;;;1.12;;
20976;SDS011;10647;51.016;3.720;2022-08-01T13:13:09;4.62;;;1.10;;
20976;SDS011;10647;51.016;3.720;2022-08-01T13:15:38;2.77;;;1.02;;
20976;SDS011;10647;51.016;3.720;2022-08-01T13:18:22;4.25;;;1.22;;
20976;SDS011;10647;51.016;3.720;2022-08-01T13:26:39;2.83;;;1.12;;
20976;SDS011;10647;51.016;3.720;2022-08-01T13:29:12;5.35;;;1.42;;
20976;SDS011;10647;51.016;3.720;2022-08-01T13:31:47;2.90;;;1.25;;
20976;SDS011;10647;51.016;3.720;2022-08-01T13:34:15;2.15;;;1.12;;
20976;SDS011;10647;51.016;3.720;2022-08-01T13:36:43;5.17;;;1.25;;
20976;SDS011;10647;51.016;3.720;2022-08-01T13:39:10;2.95;;;1.32;;
20976;SDS011;10647;51.016;3.720;2022-08-01T13:41:56;2.33;;;1.02;;
20976;SDS011;10647;51.016;3.720;2022-08-01T13:44:23;4.42;;;1.40;;
20976;SDS011;10647;51.016;3.720;2022-08-01T13:46:51;7.55;;;1.20;;
20976;SDS011;10647;51.016;3.720;2022-08-01T13:49:18;2.83;;;1.10;;
20976;SDS011;10647;51.016;3.720;2022-08-01T13:51:46;2.92;;;0.80;;
20976;SDS011;10647;51.016;3.720;2022-08-01T13:54:15;3.47;;;1.30;;
20976;SDS011;10647;51.016;3.720;2022-08-01T13:56:43;3.90;;;1.10;;
20976;SDS011;10647;51.016;3.720;2022-08-01T13:59:11;3.90;;;1.00;;
20976;SDS011;10647;51.016;3.720;2022-08-01T14:01:39;3.47;;;1.10;;
20976;SDS011;10647;51.016;3.720;2022-08-01T14:04:07;2.25;;;1.10;;
20976;SDS011;10647;51.016;3.720;2022-08-01T14:06:34;3.80;;;0.80;;
20976;SDS011;10647;51.016;3.720;2022-08-01T14:09:07;2.20;;;0.70;;
20976;SDS011;10647;51.016;3.720;2022-08-01T14:11:32;3.47;;;1.00;;
20976;SDS011;10647;51.016;3.720;2022-08-01T14:14:00;2.10;;;0.95;;
20976;SDS011;10647;51.016;3.720;2022-08-01T14:16:27;1.77;;;0.75;;
20976;SDS011;10647;51.016;3.720;2022-08-01T14:18:55;5.33;;;0.90;;
20976;SDS011;10647;51.016;3.720;2022-08-01T14:21:22;1.75;;;0.60;;
20976;SDS011;10647;51.016;3.720;2022-08-01T14:23:50;3.33;;;0.60;;
20976;SDS011;10647;51.016;3.720;2022-08-01T14:26:17;0.80;;;0.53;;
20976;SDS011;10647;51.016;3.720;2022-08-01T14:28:45;1.05;;;0.60;;
20976;SDS011;10647;51.016;3.720;2022-08-01T14:31:12;2.15;;;0.78;;
20976;SDS011;10647;51.016;3.720;2022-08-01T14:33:40;2.58;;;0.85;;
20976;SDS011;10647;51.016;3.720;2022-08-01T14:36:07;2.87;;;1.00;;
20976;SDS011;10647;51.016;3.720;2022-08-01T14:38:35;2.30;;;0.85;;
20976;SDS011;10647;51.016;3.720;2022-08-01T14:41:05;2.40;;;0.53;;
20976;SDS011;10647;51.016;3.720;2022-08-01T14:43:33;4.40;;;0.90;;
20976;SDS011;10647;51.016;3.720;2022-08-01T14:46:01;4.80;;;0.72;;
20976;SDS011;10647;51.016;3.720;2022-08-01T14:48:30;2.72;;;0.80;;
20976;SDS011;10647;51.016;3.720;2022-08-01T14:50:58;0.90;;;0.50;;
20976;SDS011;10647;51.016;3.720;2022-08-01T14:53:30;1.65;;;0.70;;
20976;SDS011;10647;51.016;3.720;2022-08-01T14:55:58;2.87;;;0.93;;
20976;SDS011;10647;51.016;3.720;2022-08-01T14:58:25;2.12;;;0.70;;
20976;SDS011;10647;51.016;3.720;2022-08-01T15:00:53;1.95;;;0.68;;
20976;SDS011;10647;51.016;3.720;2022-08-01T15:03:21;2.83;;;0.72;;
20976;SDS011;10647;51.016;3.720;2022-08-01T15:05:48;5.17;;;0.78;;
20976;SDS011;10647;51.016;3.720;2022-08-01T15:08:16;3.08;;;0.68;;
20976;SDS011;10647;51.016;3.720;2022-08-01T15:10:44;1.72;;;0.60;;
20976;SDS011;10647;51.016;3.720;2022-08-01T15:13:11;2.30;;;0.88;;
20976;SDS011;10647;51.016;3.720;2022-08-01T15:15:39;2.08;;;0.50;;
20976;SDS011;10647;51.016;3.720;2022-08-01T15:18:06;3.92;;;0.70;;
20976;SDS011;10647;51.016;3.720;2022-08-01T15:20:34;0.85;;;0.55;;
20976;SDS011;10647;51.016;3.720;2022-08-01T15:23:02;1.45;;;0.70;;
20976;SDS011;10647;51.016;3.720;2022-08-01T15:25:29;1.45;;;0.72;;
20976;SDS011;10647;51.016;3.720;2022-08-01T15:27:57;1.22;;;0.62;;
20976;SDS011;10647;51.016;3.720;2022-08-01T15:30:25;2.47;;;0.70;;
20976;SDS011;10647;51.016;3.720;2022-08-01T15:32:52;1.22;;;0.50;;
20976;SDS011;10647;51.016;3.720;2022-08-01T15:35:20;1.90;;;0.60;;
20976;SDS011;10647;51.016;3.720;2022-08-01T15:37:47;1.60;;;0.70;;
20976;SDS011;10647;51.016;3.720;2022-08-01T15:40:15;1.90;;;0.60;;
20976;SDS011;10647;51.016;3.720;2022-08-01T15:42:42;2.30;;;0.68;;
20976;SDS011;10647;51.016;3.720;2022-08-01T15:45:10;1.65;;;0.60;;
20976;SDS011;10647;51.016;3.720;2022-08-01T15:47:40;1.98;;;0.70;;
20976;SDS011;10647;51.016;3.720;2022-08-01T15:50:07;2.25;;;0.80;;
20976;SDS011;10647;51.016;3.720;2022-08-01T15:52:35;1.27;;;0.55;;
20976;SDS011;10647;51.016;3.720;2022-08-01T15:55:03;1.98;;;0.80;;
20976;SDS011;10647;51.016;3.720;2022-08-01T15:57:30;4.55;;;1.30;;
20976;SDS011;10647;51.016;3.720;2022-08-01T15:59:58;2.60;;;0.93;;
20976;SDS011;10647;51.016;3.720;2022-08-01T16:02:25;2.52;;;0.80;;
20976;SDS011;10647;51.016;3.720;2022-08-01T16:04:53;4.70;;;0.98;;
20976;SDS011;10647;51.016;3.720;2022-08-01T16:07:20;2.40;;;0.80;;
20976;SDS011;10647;51.016;3.720;2022-08-01T16:09:48;4.95;;;1.20;;